Nortonville, Kentucky
Current Conditions -  °F | °C
As of 12:55 PM on Friday 31 Oct 2014 (Local Time) from K2I0 Reporting Station
Overcast Overcast  
Wind Chill: 39°   Ceiling: 2900
Heat Index: 46°   Visibility: 10mi
Dew Point: 38°   Wind: 16mph
Humidity: 75%   Direction: 350°N
Pressure: 30.09"   Gusts: 23mph
Location:  37.19°N, 87.45°W
Report Text: K2I0 311755Z AUTO 35014G20KT 10SM OVC029 08/03 A3009 RMK AO2 T00750033 10117 20070
Loading
Personal Weather Stations






























Interactive Weather Map
Tropical Storm Tracking
New forecast layout! Learn more

10-Day Weather Forecast

Advertisements
Track Severe Weather on mobile